Time;durP1;ratioP1;P1;durP2;ratioP2;P2;SDS_P1;SDS_P2;PMS_P1;PMS_P2;Temp;Humidity;BMP_temperature;BMP_pressure;BME280_temperature;BME280_humidity;BME280_pressure;Samples;Min_cycle;Max_cycle;Signal;HPM_P1;HPM_P2
2023/06/07 00:01:05;;;;;;;46.17;26.58;;;16.40;99.90;;;;;;5021085;28;20053;-75
2023/06/07 00:03:34;;;;;;;43.58;26.35;;;16.40;99.90;;;;;;5019914;28;20085;-76
2023/06/07 00:06:01;;;;;;;52.13;27.75;;;16.50;99.90;;;;;;5029581;28;20524;-76
2023/06/07 00:08:29;;;;;;;53.78;28.13;;;16.50;99.90;;;;;;5039016;28;20049;-75
2023/06/07 00:10:59;;;;;;;52.42;27.58;;;16.50;99.90;;;;;;5039361;28;20049;-76
2023/06/07 00:13:26;;;;;;;53.63;28.23;;;16.50;99.90;;;;;;5043890;28;20068;-76
2023/06/07 00:15:53;;;;;;;50.92;26.98;;;16.50;99.90;;;;;;5057557;28;20057;-76
2023/06/07 00:18:21;;;;;;;48.38;27.05;;;16.50;99.90;;;;;;5056468;28;20047;-74
2023/06/07 00:20:50;;;;;;;50.53;26.83;;;16.50;99.90;;;;;;5026287;28;20045;-76
2023/06/07 00:23:18;;;;;;;44.95;24.98;;;16.60;99.90;;;;;;5049721;28;20110;-76
2023/06/07 00:25:46;;;;;;;50.60;26.25;;;16.50;99.90;;;;;;5050189;28;20489;-75
2023/06/07 00:28:14;;;;;;;48.83;27.70;;;16.50;99.90;;;;;;5049397;28;20416;-76
2023/06/07 00:30:42;;;;;;;45.40;27.02;;;16.60;99.90;;;;;;5033261;28;20056;-76
2023/06/07 00:33:09;;;;;;;39.38;25.08;;;16.60;99.90;;;;;;5032773;28;20044;-75
2023/06/07 00:35:37;;;;;;;44.70;24.75;;;16.60;99.90;;;;;;5032653;28;20048;-75
2023/06/07 00:38:06;;;;;;;38.40;24.40;;;16.70;99.90;;;;;;5047578;28;20067;-76
2023/06/07 00:40:34;;;;;;;39.28;24.13;;;16.60;99.90;;;;;;5047893;28;20294;-75
2023/06/07 00:43:01;;;;;;;42.72;24.38;;;16.60;99.90;;;;;;5049365;28;20037;-75
2023/06/07 00:45:30;;;;;;;61.25;24.08;;;16.60;99.90;;;;;;5050034;28;20045;-76
2023/06/07 00:47:57;;;;;;;94.25;25.42;;;16.60;99.90;;;;;;5030605;28;20045;-75
2023/06/07 00:50:25;;;;;;;47.17;24.60;;;16.50;99.90;;;;;;5030783;28;20036;-76
2023/06/07 00:52:53;;;;;;;44.45;25.17;;;16.50;99.90;;;;;;5048145;28;20041;-76
2023/06/07 00:55:21;;;;;;;40.83;23.55;;;16.50;99.90;;;;;;5049546;28;20037;-76
2023/06/07 00:57:49;;;;;;;43.10;23.88;;;16.40;99.90;;;;;;5048194;28;20049;-76
2023/06/07 01:00:16;;;;;;;35.10;23.42;;;16.40;99.90;;;;;;5029212;28;20086;-75
2023/06/07 01:02:49;;;;;;;40.65;24.33;;;16.40;99.90;;;;;;5046477;28;20041;-76
2023/06/07 01:05:17;;;;;;;40.20;25.05;;;16.40;99.90;;;;;;5046903;28;20045;-75
2023/06/07 01:07:49;;;;;;;34.30;22.73;;;16.40;99.90;;;;;;5047017;28;20080;-76
2023/06/07 01:10:17;;;;;;;34.55;21.48;;;16.50;99.90;;;;;;5030650;28;20057;-76
2023/06/07 01:12:47;;;;;;;39.40;22.52;;;16.50;99.90;;;;;;5049231;28;20047;-75
2023/06/07 01:15:15;;;;;;;39.25;24.60;;;16.50;99.90;;;;;;5048780;28;20061;-76
2023/06/07 01:17:44;;;;;;;34.00;22.85;;;16.50;99.90;;;;;;5047318;28;20048;-76
2023/06/07 01:20:16;;;;;;;48.85;22.92;;;16.50;99.90;;;;;;5046136;28;20048;-75
2023/06/07 01:22:47;;;;;;;35.20;22.48;;;16.60;99.90;;;;;;5042301;28;20370;-76
2023/06/07 01:25:16;;;;;;;39.55;22.70;;;16.50;99.90;;;;;;5046560;28;20263;-76
2023/06/07 01:27:45;;;;;;;36.92;22.42;;;16.50;99.90;;;;;;5047872;28;20123;-76
2023/06/07 01:30:15;;;;;;;39.15;22.08;;;16.50;99.90;;;;;;5055400;28;20041;-76
2023/06/07 01:32:43;;;;;;;41.22;23.08;;;16.50;99.90;;;;;;5029409;28;20041;-75
2023/06/07 01:35:12;;;;;;;38.20;22.02;;;16.50;99.90;;;;;;5029393;28;20041;-76
2023/06/07 01:37:41;;;;;;;36.80;23.33;;;16.40;99.90;;;;;;5046627;28;20086;-76
2023/06/07 01:40:11;;;;;;;35.83;22.40;;;16.40;99.90;;;;;;5047253;28;20049;-75
2023/06/07 01:42:40;;;;;;;44.13;22.15;;;16.40;99.90;;;;;;5046338;28;20040;-76
2023/06/07 01:45:09;;;;;;;37.78;21.58;;;16.50;99.90;;;;;;5046560;28;20033;-75
2023/06/07 01:47:37;;;;;;;44.75;22.85;;;16.50;99.90;;;;;;5028342;28;20045;-75
2023/06/07 01:50:05;;;;;;;35.97;21.65;;;16.50;99.90;;;;;;5030440;28;20049;-74
2023/06/07 01:52:32;;;;;;;42.65;22.40;;;16.50;99.90;;;;;;5030369;28;20041;-76
2023/06/07 01:55:01;;;;;;;44.72;23.90;;;16.40;99.90;;;;;;5055940;28;20061;-74
2023/06/07 01:57:36;;;;;;;38.70;21.73;;;16.50;99.90;;;;;;5045560;28;20041;-75
2023/06/07 02:00:15;;;;;;;34.20;21.85;;;16.50;99.90;;;;;;5030156;28;20072;-74
2023/06/07 02:02:50;;;;;;;32.40;21.48;;;16.60;99.90;;;;;;5055463;28;20468;-75
2023/06/07 02:05:21;;;;;;;32.30;20.38;;;16.60;99.90;;;;;;5029253;28;20068;-74
2023/06/07 02:07:50;;;;;;;29.92;20.38;;;16.50;99.90;;;;;;5046774;28;20037;-74
2023/06/07 02:10:21;;;;;;;27.42;18.48;;;16.60;99.90;;;;;;5049039;28;20033;-73
2023/06/07 02:12:53;;;;;;;25.13;18.02;;;16.60;99.90;;;;;;5030070;28;20507;-75
2023/06/07 02:15:22;;;;;;;25.85;18.08;;;16.60;99.90;;;;;;5047871;28;20045;-76
2023/06/07 02:17:51;;;;;;;22.65;16.85;;;16.60;99.90;;;;;;5030847;28;20075;-75
2023/06/07 02:20:22;;;;;;;24.80;17.52;;;16.60;99.90;;;;;;5048687;28;20045;-76
2023/06/07 02:22:49;;;;;;;25.13;17.23;;;16.60;99.90;;;;;;5049923;28;20082;-76
2023/06/07 02:25:16;;;;;;;22.77;17.35;;;16.60;99.90;;;;;;5031541;28;20135;-76
2023/06/07 02:27:44;;;;;;;23.75;17.98;;;16.60;99.90;;;;;;5048559;28;20071;-76
2023/06/07 02:30:12;;;;;;;25.25;16.60;;;16.60;99.90;;;;;;5054389;28;20045;-76
2023/06/07 02:32:41;;;;;;;23.92;17.42;;;16.50;99.90;;;;;;5044690;28;20505;-76
2023/06/07 02:35:09;;;;;;;23.73;16.45;;;16.50;99.90;;;;;;5047980;28;20072;-75
2023/06/07 02:37:37;;;;;;;22.80;16.23;;;16.50;99.90;;;;;;5030452;28;20134;-74
2023/06/07 02:40:08;;;;;;;20.80;17.00;;;16.60;99.90;;;;;;5037514;28;20320;-75
2023/06/07 02:42:36;;;;;;;25.33;19.05;;;16.60;99.90;;;;;;5039161;28;20095;-75
2023/06/07 02:45:04;;;;;;;22.58;18.50;;;16.60;99.90;;;;;;5038254;28;20568;-75
2023/06/07 02:47:32;;;;;;;22.83;17.48;;;16.60;99.90;;;;;;5038504;28;20598;-75
2023/06/07 02:50:05;;;;;;;21.77;17.20;;;16.60;99.90;;;;;;5044413;28;20095;-75
2023/06/07 02:52:33;;;;;;;24.55;16.67;;;16.60;99.90;;;;;;5038176;28;20083;-75
2023/06/07 02:55:01;;;;;;;25.08;17.10;;;16.60;99.90;;;;;;5045817;28;20060;-75
2023/06/07 02:57:28;;;;;;;22.80;16.02;;;16.70;99.90;;;;;;5038401;28;20045;-75
2023/06/07 02:59:56;;;;;;;22.60;16.88;;;16.70;99.90;;;;;;5020223;28;20047;-75
2023/06/07 03:02:29;;;;;;;25.88;16.25;;;16.70;99.90;;;;;;5017305;28;20045;-75
2023/06/07 03:04:57;;;;;;;24.40;17.05;;;16.80;99.90;;;;;;5019228;28;20041;-75
2023/06/07 03:07:29;;;;;;;20.60;16.00;;;16.70;99.90;;;;;;5005176;28;20041;-75
2023/06/07 03:09:57;;;;;;;23.27;18.05;;;16.70;99.90;;;;;;5005856;28;20038;-75
2023/06/07 03:12:24;;;;;;;27.52;20.80;;;16.70;99.90;;;;;;4990607;28;20042;-75
2023/06/07 03:14:56;;;;;;;26.20;19.52;;;16.70;99.90;;;;;;5005839;28;20498;-75
2023/06/07 03:17:24;;;;;;;29.65;23.10;;;16.70;99.90;;;;;;5007856;28;20084;-75
2023/06/07 03:19:56;;;;;;;22.20;17.25;;;16.70;99.90;;;;;;5005143;28;20132;-75
2023/06/07 03:22:26;;;;;;;19.48;15.25;;;16.60;99.90;;;;;;5007032;28;20045;-75
2023/06/07 03:24:57;;;;;;;26.27;18.63;;;16.70;99.90;;;;;;5004819;28;20425;-75
2023/06/07 03:27:27;;;;;;;22.67;16.20;;;16.70;99.90;;;;;;5005695;28;20107;-76
2023/06/07 03:30:01;;;;;;;18.38;14.65;;;16.70;99.90;;;;;;5006459;28;20038;-75
2023/06/07 03:32:31;;;;;;;22.38;15.95;;;16.70;99.90;;;;;;5006571;28;20033;-76
2023/06/07 03:34:59;;;;;;;21.08;16.77;;;16.70;99.90;;;;;;5006209;28;21078;-76
2023/06/07 03:37:26;;;;;;;19.33;15.30;;;16.70;99.90;;;;;;5016826;28;20493;-75
2023/06/07 03:39:55;;;;;;;20.98;15.55;;;16.70;99.90;;;;;;5007838;28;20061;-76
2023/06/07 03:42:23;;;;;;;21.98;16.02;;;16.70;99.90;;;;;;5026773;28;20042;-76
2023/06/07 03:44:50;;;;;;;19.60;16.30;;;16.70;99.90;;;;;;5030833;28;20105;-75
2023/06/07 03:47:17;;;;;;;24.55;19.20;;;16.70;99.90;;;;;;5014414;28;20077;-75
2023/06/07 03:49:45;;;;;;;30.25;19.58;;;16.70;99.90;;;;;;5009792;28;20061;-76
2023/06/07 03:52:13;;;;;;;33.65;20.50;;;16.80;99.90;;;;;;5006856;28;20103;-75
2023/06/07 03:54:41;;;;;;;32.85;22.23;;;16.70;99.90;;;;;;5005577;28;20037;-75
2023/06/07 03:57:11;;;;;;;35.80;24.40;;;16.80;99.90;;;;;;5004400;28;21704;-75
2023/06/07 03:59:42;;;;;;;40.20;24.23;;;16.70;99.90;;;;;;5006004;28;20084;-77
2023/06/07 04:02:10;;;;;;;39.85;25.70;;;16.70;99.90;;;;;;5007019;28;20057;-75
2023/06/07 04:04:37;;;;;;;40.17;24.95;;;16.80;99.90;;;;;;5033147;28;20048;-76
2023/06/07 04:07:07;;;;;;;38.28;25.05;;;16.80;99.90;;;;;;5015917;28;20050;-76
2023/06/07 04:09:35;;;;;;;34.60;24.23;;;17.00;99.90;;;;;;5004222;28;20045;-75
2023/06/07 04:12:03;;;;;;;35.65;24.60;;;17.10;99.90;;;;;;5005919;28;20408;-74
2023/06/07 04:14:32;;;;;;;34.45;23.02;;;17.10;99.90;;;;;;5005433;28;20042;-75
2023/06/07 04:17:01;;;;;;;32.20;21.90;;;17.20;99.90;;;;;;5004795;28;20120;-76
2023/06/07 04:19:29;;;;;;;33.45;23.13;;;17.30;99.90;;;;;;5006013;28;20109;-74
2023/06/07 04:21:58;;;;;;;33.97;23.20;;;17.40;99.90;;;;;;5035540;28;20046;-78
2023/06/07 04:24:26;;;;;;;30.55;21.90;;;17.40;99.90;;;;;;5005158;28;20127;-74
2023/06/07 04:26:56;;;;;;;30.92;22.05;;;17.50;99.90;;;;;;5005883;28;20223;-75
2023/06/07 04:29:25;;;;;;;30.45;21.13;;;17.60;99.90;;;;;;5002787;28;20136;-77
2023/06/07 04:31:56;;;;;;;29.83;22.00;;;17.60;99.90;;;;;;5001788;28;20096;-75
2023/06/07 04:34:28;;;;;;;28.50;20.77;;;17.60;99.90;;;;;;5005900;28;20148;-75
2023/06/07 04:36:56;;;;;;;31.85;21.75;;;17.60;99.90;;;;;;5008631;28;20038;-75
2023/06/07 04:39:24;;;;;;;37.35;21.83;;;17.60;99.90;;;;;;5006765;28;20041;-76
2023/06/07 04:41:54;;;;;;;33.38;23.10;;;17.60;99.90;;;;;;5020021;28;20497;-76
2023/06/07 04:44:28;;;;;;;33.58;23.58;;;17.60;99.90;;;;;;5006628;28;20063;-75
2023/06/07 04:47:03;;;;;;;32.45;23.73;;;17.60;99.90;;;;;;5008710;28;20493;-75
2023/06/07 04:49:33;;;;;;;37.65;24.98;;;17.50;99.90;;;;;;5016189;28;20072;-75
2023/06/07 04:52:02;;;;;;;37.13;24.38;;;17.60;99.90;;;;;;5018927;28;20435;-76
2023/06/07 04:54:31;;;;;;;40.10;24.50;;;17.60;99.90;;;;;;5008884;28;20033;-75
2023/06/07 04:57:00;;;;;;;44.65;25.10;;;17.60;99.90;;;;;;5004867;28;20405;-75
2023/06/07 04:59:34;;;;;;;45.13;25.20;;;17.70;99.90;;;;;;5008476;28;20401;-75
2023/06/07 05:02:10;;;;;;;34.88;22.45;;;17.70;99.90;;;;;;5008207;28;20374;-75
2023/06/07 05:04:40;;;;;;;38.50;23.75;;;17.80;99.90;;;;;;5008771;28;20128;-76
2023/06/07 05:07:08;;;;;;;45.97;25.38;;;17.80;99.90;;;;;;5006044;28;20045;-75
2023/06/07 05:09:40;;;;;;;45.63;26.15;;;17.90;99.90;;;;;;5007019;28;20757;-74
2023/06/07 05:12:09;;;;;;;64.78;33.17;;;17.90;99.90;;;;;;5007388;28;20046;-76
2023/06/07 05:14:38;;;;;;;72.07;32.80;;;18.00;99.90;;;;;;5008093;28;20045;-76
2023/06/07 05:17:06;;;;;;;67.28;32.10;;;18.10;99.90;;;;;;5008036;28;20092;-75
2023/06/07 05:19:36;;;;;;;102.40;38.13;;;18.10;99.90;;;;;;5006353;28;20050;-76
2023/06/07 05:22:05;;;;;;;119.97;43.58;;;18.20;99.90;;;;;;5018360;28;20128;-76
2023/06/07 05:24:34;;;;;;;131.05;49.63;;;18.20;99.90;;;;;;5004486;28;20129;-76
2023/06/07 05:27:05;;;;;;;141.60;48.78;;;18.20;99.90;;;;;;5006626;28;20044;-75
2023/06/07 05:29:33;;;;;;;140.30;52.38;;;18.30;99.90;;;;;;5006759;28;20579;-75
2023/06/07 05:32:01;;;;;;;133.77;46.72;;;18.40;99.90;;;;;;5005748;28;20046;-75
2023/06/07 05:34:28;;;;;;;130.15;49.60;;;18.60;99.90;;;;;;5008237;28;20054;-76
2023/06/07 05:36:58;;;;;;;143.70;48.83;;;18.70;99.90;;;;;;5009289;28;20167;-76
2023/06/07 05:39:28;;;;;;;109.22;44.72;;;18.80;99.90;;;;;;5004550;28;20544;-75
2023/06/07 05:41:56;;;;;;;134.48;48.67;;;18.90;99.90;;;;;;5018625;28;20048;-74
2023/06/07 05:44:24;;;;;;;136.07;46.72;;;19.00;99.90;;;;;;5032731;28;20111;-76
2023/06/07 05:46:51;;;;;;;143.88;49.45;;;19.10;99.90;;;;;;5008481;28;20046;-75
2023/06/07 05:49:19;;;;;;;132.80;47.65;;;19.10;99.90;;;;;;5005604;28;20137;-75
2023/06/07 05:51:46;;;;;;;132.77;47.60;;;19.20;99.90;;;;;;5005601;28;20049;-75
2023/06/07 05:54:17;;;;;;;121.95;44.50;;;19.40;99.90;;;;;;5018093;28;20034;-76
2023/06/07 05:56:45;;;;;;;120.57;44.70;;;19.60;99.90;;;;;;5006713;28;20046;-75
2023/06/07 05:59:12;;;;;;;134.82;49.65;;;19.90;99.90;;;;;;5016371;28;20069;-76
2023/06/07 06:01:40;;;;;;;143.85;49.72;;;20.00;99.90;;;;;;5019560;28;20041;-75
2023/06/07 06:04:08;;;;;;;131.30;43.95;;;19.80;99.90;;;;;;5019058;28;20042;-75
2023/06/07 06:06:36;;;;;;;142.45;48.33;;;19.70;99.90;;;;;;5032669;28;20049;-74
2023/06/07 06:09:04;;;;;;;142.15;46.58;;;19.70;99.90;;;;;;5037538;28;20110;-75
2023/06/07 06:11:33;;;;;;;143.75;50.00;;;19.70;99.90;;;;;;5020314;28;20497;-75
2023/06/07 06:14:00;;;;;;;203.50;68.28;;;19.80;99.90;;;;;;5033993;28;20465;-76
2023/06/07 06:16:28;;;;;;;133.93;46.00;;;19.90;99.90;;;;;;5036686;28;20135;-76
2023/06/07 06:18:55;;;;;;;126.50;42.95;;;19.90;99.90;;;;;;5036249;28;20064;-76
2023/06/07 06:21:22;;;;;;;137.95;48.45;;;19.80;99.90;;;;;;5037650;28;20045;-73
2023/06/07 06:23:50;;;;;;;134.30;49.53;;;19.70;99.90;;;;;;5032413;28;20096;-76
2023/06/07 06:26:17;;;;;;;128.80;45.03;;;19.90;99.90;;;;;;5036660;28;20033;-76
2023/06/07 06:28:46;;;;;;;127.53;49.08;;;20.10;99.90;;;;;;5036579;28;20040;-75
2023/06/07 06:31:14;;;;;;;126.93;48.28;;;20.20;99.90;;;;;;5036732;28;20049;-76
2023/06/07 06:33:41;;;;;;;123.78;47.22;;;20.40;99.90;;;;;;5036630;28;20045;-76
2023/06/07 06:36:08;;;;;;;122.65;46.70;;;20.50;99.90;;;;;;5038546;28;20562;-76
2023/06/07 06:38:36;;;;;;;131.05;49.22;;;20.70;99.90;;;;;;5035966;28;20046;-74
2023/06/07 06:41:03;;;;;;;123.53;46.85;;;20.90;99.90;;;;;;5032466;28;20053;-75
2023/06/07 06:43:31;;;;;;;115.05;46.05;;;21.00;99.90;;;;;;5035863;28;20500;-76
2023/06/07 06:46:02;;;;;;;115.65;41.28;;;20.80;99.90;;;;;;5043999;28;20034;-76
2023/06/07 06:48:30;;;;;;;118.13;44.03;;;20.80;99.90;;;;;;5034059;28;20049;-76
2023/06/07 06:50:57;;;;;;;110.45;43.47;;;21.00;99.90;;;;;;5033326;28;20033;-77
2023/06/07 06:53:25;;;;;;;108.78;42.92;;;21.40;99.90;;;;;;5033213;28;20042;-77
2023/06/07 06:55:52;;;;;;;91.60;40.40;;;21.80;99.90;;;;;;5033809;28;20072;-76
2023/06/07 06:58:21;;;;;;;99.47;37.58;;;22.10;99.90;;;;;;5037528;28;20441;-75
2023/06/07 07:00:48;;;;;;;92.88;38.63;;;21.90;99.90;;;;;;5033215;28;20045;-77
2023/06/07 07:03:17;;;;;;;83.85;36.83;;;21.80;99.90;;;;;;5025245;28;20072;-77
2023/06/07 07:05:45;;;;;;;84.55;37.53;;;21.70;99.90;;;;;;5034913;28;20045;-76
2023/06/07 07:08:12;;;;;;;98.45;41.13;;;21.90;99.90;;;;;;5032736;28;20064;-76
2023/06/07 07:10:40;;;;;;;94.47;40.15;;;22.20;99.90;;;;;;5034335;28;20055;-76
2023/06/07 07:13:07;;;;;;;87.93;39.10;;;22.60;99.90;;;;;;5018046;28;20073;-76
2023/06/07 07:15:34;;;;;;;95.70;42.95;;;22.50;99.90;;;;;;5019414;28;20037;-78
2023/06/07 07:18:02;;;;;;;91.75;40.03;;;22.70;99.90;;;;;;5017543;28;20497;-77
2023/06/07 07:20:31;;;;;;;81.47;36.95;;;23.00;99.90;;;;;;5000543;28;20087;-76
2023/06/07 07:23:01;;;;;;;82.15;33.55;;;23.20;99.90;;;;;;5018242;28;20045;-78
2023/06/07 07:25:29;;;;;;;78.78;36.05;;;23.70;99.90;;;;;;5001528;28;20380;-76
2023/06/07 07:27:56;;;;;;;79.85;36.00;;;24.00;99.90;;;;;;5017423;28;20050;-77
2023/06/07 07:30:24;;;;;;;75.35;34.85;;;23.90;99.90;;;;;;5017380;28;20046;-77
2023/06/07 07:32:51;;;;;;;75.47;35.53;;;24.30;99.90;;;;;;5018653;28;20122;-77
2023/06/07 07:35:19;;;;;;;67.28;31.38;;;24.40;99.90;;;;;;5000756;28;20148;-76
2023/06/07 07:37:47;;;;;;;61.20;28.80;;;24.40;99.90;;;;;;5000700;28;20168;-77
2023/06/07 07:40:15;;;;;;;57.33;28.58;;;24.30;99.90;;;;;;5017754;28;20040;-77
2023/06/07 07:42:43;;;;;;;57.97;27.40;;;24.40;99.90;;;;;;5018790;28;20087;-76
2023/06/07 07:45:11;;;;;;;51.97;26.55;;;24.50;99.90;;;;;;5018301;28;20050;-76
2023/06/07 07:47:39;;;;;;;57.80;28.17;;;24.60;99.90;;;;;;5018778;28;20527;-76
2023/06/07 07:50:07;;;;;;;55.40;25.38;;;24.60;99.90;;;;;;5015563;28;20045;-75
2023/06/07 07:52:35;;;;;;;52.53;26.02;;;24.70;99.90;;;;;;5000247;28;20040;-76
2023/06/07 07:55:06;;;;;;;47.45;23.15;;;24.50;99.90;;;;;;5018881;28;20049;-76
2023/06/07 07:57:34;;;;;;;45.42;22.80;;;24.50;99.90;;;;;;5017377;28;20509;-76
2023/06/07 08:00:04;;;;;;;51.53;24.42;;;24.20;99.90;;;;;;5018840;28;20418;-77
2023/06/07 08:02:40;;;;;;;47.83;24.50;;;24.20;99.90;;;;;;5018924;28;20069;-77
2023/06/07 08:05:08;;;;;;;50.83;25.13;;;24.40;99.90;;;;;;5016732;28;20049;-76
2023/06/07 08:07:36;;;;;;;52.58;25.33;;;24.40;99.90;;;;;;5017462;28;20485;-76
2023/06/07 08:10:05;;;;;;;51.13;25.13;;;24.30;99.90;;;;;;5017709;28;20050;-79
2023/06/07 08:12:33;;;;;;;58.20;26.85;;;24.20;99.90;;;;;;5005340;28;20042;-76
2023/06/07 08:15:00;;;;;;;50.10;25.05;;;24.30;99.90;;;;;;5024882;28;20061;-78
2023/06/07 08:17:28;;;;;;;50.78;24.27;;;24.20;99.90;;;;;;5022252;28;20359;-76
2023/06/07 08:19:55;;;;;;;44.63;22.73;;;24.10;99.90;;;;;;5022668;28;20048;-77
2023/06/07 08:22:23;;;;;;;45.38;22.52;;;23.70;99.90;;;;;;5022843;28;20038;-77
2023/06/07 08:24:50;;;;;;;46.20;23.00;;;23.50;99.90;;;;;;5004233;28;20050;-77
2023/06/07 08:27:19;;;;;;;47.25;22.38;;;23.50;99.90;;;;;;5022490;28;20044;-76
2023/06/07 08:29:47;;;;;;;48.15;19.60;;;23.50;99.90;;;;;;5020675;28;20067;-78
2023/06/07 08:32:14;;;;;;;41.70;19.88;;;23.70;99.90;;;;;;5021270;28;20050;-76
2023/06/07 08:34:41;;;;;;;35.92;19.05;;;23.90;99.90;;;;;;5021122;28;20087;-76
2023/06/07 08:37:09;;;;;;;39.58;17.00;;;24.00;99.90;;;;;;5020509;28;20482;-77
2023/06/07 08:39:37;;;;;;;36.60;18.23;;;24.10;99.90;;;;;;5019756;28;20044;-76
2023/06/07 08:42:04;;;;;;;37.78;18.23;;;24.30;99.90;;;;;;5021358;28;20050;-76
2023/06/07 08:44:33;;;;;;;39.33;20.08;;;24.40;99.90;;;;;;5020909;28;20061;-75
2023/06/07 08:47:01;;;;;;;35.28;20.15;;;24.70;99.90;;;;;;5020425;28;20149;-76
2023/06/07 08:49:33;;;;;;;33.90;18.02;;;24.80;99.90;;;;;;5020515;28;20101;-79
2023/06/07 08:52:03;;;;;;;30.30;15.57;;;24.80;99.90;;;;;;5021638;28;20041;-77
2023/06/07 08:54:32;;;;;;;30.75;14.85;;;25.00;99.90;;;;;;5019270;28;20064;-78
2023/06/07 08:57:00;;;;;;;26.25;14.73;;;24.90;99.90;;;;;;5020390;28;20038;-78
2023/06/07 08:59:28;;;;;;;27.17;14.68;;;24.80;99.90;;;;;;5027933;28;20068;-76
2023/06/07 09:01:57;;;;;;;24.73;12.60;;;24.70;99.90;;;;;;5020992;28;20054;-78
2023/06/07 09:04:25;;;;;;;26.38;13.48;;;24.40;99.90;;;;;;5020864;28;20046;-77
2023/06/07 09:06:53;;;;;;;30.83;15.52;;;24.50;99.90;;;;;;5016631;28;20085;-76
2023/06/07 09:09:20;;;;;;;31.02;15.70;;;24.70;99.90;;;;;;5019977;28;20545;-78
2023/06/07 09:11:52;;;;;;;30.55;14.95;;;25.10;99.90;;;;;;5019583;28;20057;-78
2023/06/07 09:14:19;;;;;;;22.30;12.82;;;25.10;99.90;;;;;;5018541;28;20045;-75
2023/06/07 09:16:54;;;;;;;21.98;11.30;;;24.80;99.90;;;;;;5020333;28;20029;-75
2023/06/07 09:19:33;;;;;;;22.33;12.38;;;25.00;99.90;;;;;;5017243;28;20431;-76
2023/06/07 09:22:01;;;;;;;26.75;14.57;;;25.20;99.90;;;;;;5018633;28;20042;-77
2023/06/07 09:24:30;;;;;;;29.92;15.05;;;25.10;99.90;;;;;;5019047;28;20069;-77
2023/06/07 09:26:58;;;;;;;30.90;15.52;;;25.20;99.90;;;;;;5020485;28;20056;-77
2023/06/07 09:29:27;;;;;;;26.33;15.02;;;25.20;99.90;;;;;;5019958;28;20044;-76
2023/06/07 09:31:56;;;;;;;23.98;12.73;;;25.30;99.90;;;;;;5019206;28;20416;-77
2023/06/07 09:34:26;;;;;;;23.42;13.20;;;25.30;99.90;;;;;;5020345;28;20037;-77
2023/06/07 09:36:56;;;;;;;29.77;13.75;;;25.50;99.90;;;;;;5018856;28;20129;-75
2023/06/07 09:39:25;;;;;;;26.05;13.30;;;25.30;99.90;;;;;;5018731;28;20058;-76
2023/06/07 09:41:54;;;;;;;26.48;13.93;;;25.40;99.90;;;;;;5020460;28;20033;-77
2023/06/07 09:44:26;;;;;;;20.15;10.65;;;25.30;99.90;;;;;;5019974;28;20575;-76
2023/06/07 09:46:53;;;;;;;12.35;7.03;;;25.40;99.90;;;;;;5017419;28;20044;-76
2023/06/07 09:49:28;;;;;;;14.40;7.97;;;25.50;99.90;;;;;;5019568;28;20034;-77
2023/06/07 09:51:57;;;;;;;20.02;11.18;;;25.70;96.70;;;;;;5018278;28;20096;-76
2023/06/07 09:54:43;;;;;;;18.67;8.48;;;25.50;99.90;;;;;;5019541;28;20049;-75
2023/06/07 09:57:12;;;;;;;15.55;7.70;;;25.60;97.20;;;;;;5019561;28;20076;-76
2023/06/07 09:59:46;;;;;;;15.65;7.57;;;25.60;96.60;;;;;;5018058;28;20050;-75
2023/06/07 10:02:27;;;;;;;12.63;7.10;;;25.70;95.40;;;;;;5020073;28;20046;-78
2023/06/07 10:04:56;;;;;;;15.50;8.52;;;25.90;94.80;;;;;;5015497;28;20572;-77
2023/06/07 10:07:27;;;;;;;14.30;7.95;;;26.10;94.30;;;;;;5017594;28;20137;-77
2023/06/07 10:09:57;;;;;;;12.85;7.40;;;26.30;94.50;;;;;;5017167;28;20148;-77
2023/06/07 10:12:29;;;;;;;16.23;8.18;;;26.40;92.80;;;;;;5019343;28;20494;-77
2023/06/07 10:14:57;;;;;;;16.60;10.25;;;26.60;92.00;;;;;;5017133;28;20090;-76
2023/06/07 10:17:29;;;;;;;11.93;7.20;;;26.70;92.80;;;;;;5017865;28;20050;-78
2023/06/07 10:20:00;;;;;;;13.77;7.43;;;26.60;86.80;;;;;;5018657;28;20046;-77
2023/06/07 10:22:37;;;;;;;16.33;8.32;;;26.70;87.70;;;;;;5019136;28;20037;-78
2023/06/07 10:25:10;;;;;;;17.83;9.35;;;26.50;90.40;;;;;;4990508;28;20085;-77
2023/06/07 10:27:45;;;;;;;17.63;10.20;;;26.20;93.00;;;;;;5006133;28;20459;-76
2023/06/07 10:30:16;;;;;;;20.98;11.55;;;26.30;91.80;;;;;;4998144;28;20042;-75
2023/06/07 10:32:44;;;;;;;16.15;9.05;;;26.30;92.00;;;;;;4989612;28;20099;-76
2023/06/07 10:35:13;;;;;;;12.35;8.40;;;26.30;90.30;;;;;;4987945;28;20129;-76
2023/06/07 10:37:43;;;;;;;12.73;7.05;;;26.50;88.50;;;;;;4979416;28;20047;-77
2023/06/07 10:40:14;;;;;;;14.65;9.13;;;26.40;86.70;;;;;;4990049;28;20047;-76
2023/06/07 10:42:43;;;;;;;13.68;8.55;;;26.50;90.00;;;;;;4988992;28;20042;-76
2023/06/07 10:45:15;;;;;;;11.70;7.72;;;26.70;90.00;;;;;;4988546;28;20051;-76
2023/06/07 10:47:43;;;;;;;14.82;9.02;;;26.80;87.10;;;;;;4988119;28;20046;-75
2023/06/07 10:50:54;;;;;;;18.42;9.52;;;26.90;86.90;;;;;;4989836;28;20050;-76
2023/06/07 10:53:24;;;;;;;13.00;7.65;;;27.00;89.30;;;;;;4981240;28;20057;-77
2023/06/07 10:55:51;;;;;;;14.55;9.10;;;26.90;84.50;;;;;;4973360;28;20141;-76
2023/06/07 10:58:29;;;;;;;14.35;6.22;;;27.00;84.50;;;;;;4991540;28;20038;-77
2023/06/07 11:00:58;;;;;;;12.30;6.63;;;27.20;81.90;;;;;;4989727;28;20093;-77
2023/06/07 11:03:41;;;;;;;13.05;7.28;;;27.40;83.00;;;;;;4990707;28;20121;-77
2023/06/07 11:06:10;;;;;;;10.80;5.97;;;27.50;84.00;;;;;;5006583;28;20608;-77
2023/06/07 11:08:39;;;;;;;9.82;6.65;;;27.50;80.60;;;;;;5017048;28;20050;-76
2023/06/07 11:11:48;;;;;;;8.43;5.68;;;27.40;79.30;;;;;;5019630;28;20522;-76
2023/06/07 11:14:16;;;;;;;11.05;6.25;;;27.10;78.10;;;;;;5019552;28;20500;-76
2023/06/07 11:16:44;;;;;;;11.88;7.40;;;27.20;79.30;;;;;;5019473;28;20045;-76
2023/06/07 11:19:16;;;;;;;11.15;6.57;;;27.50;77.40;;;;;;5018360;28;20046;-75
2023/06/07 11:22:06;;;;;;;11.95;7.00;;;27.70;76.00;;;;;;5018128;28;20441;-77
2023/06/07 11:24:37;;;;;;;10.82;6.15;;;27.70;72.90;;;;;;5017599;28;20805;-76
2023/06/07 11:27:13;;;;;;;7.70;5.53;;;27.90;73.80;;;;;;5018521;28;20053;-76
2023/06/07 11:29:42;;;;;;;12.40;7.55;;;28.20;68.70;;;;;;5017427;28;20053;-76
2023/06/07 11:32:11;;;;;;;9.77;6.10;;;28.30;67.60;;;;;;5016764;28;20498;-75
2023/06/07 11:34:38;;;;;;;9.35;5.60;;;28.40;67.70;;;;;;5017746;28;20073;-75
2023/06/07 11:37:14;;;;;;;9.95;5.20;;;28.50;64.80;;;;;;5035641;28;20493;-74
2023/06/07 11:39:43;;;;;;;9.30;7.03;;;28.60;64.70;;;;;;5035833;28;20045;-76
2023/06/07 11:42:11;;;;;;;10.48;6.50;;;28.50;67.30;;;;;;5036429;28;20073;-77
2023/06/07 11:44:38;;;;;;;7.30;4.97;;;28.40;68.80;;;;;;5037210;28;20033;-75
2023/06/07 11:47:07;;;;;;;10.57;5.60;;;28.50;68.60;;;;;;5043405;28;20045;-76
2023/06/07 11:49:38;;;;;;;10.00;6.70;;;28.40;68.90;;;;;;5025483;28;20049;-77
2023/06/07 11:52:06;;;;;;;9.48;5.28;;;28.40;69.60;;;;;;5044242;28;20107;-77
2023/06/07 11:54:35;;;;;;;5.93;4.10;;;28.50;70.10;;;;;;5043163;28;20933;-76
2023/06/07 11:57:06;;;;;;;8.32;3.92;;;28.70;73.40;;;;;;5045184;28;20509;-75
2023/06/07 11:59:33;;;;;;;7.40;4.53;;;28.60;76.30;;;;;;5042158;28;20144;-78
2023/06/07 12:02:01;;;;;;;7.57;4.50;;;28.10;77.50;;;;;;5042584;28;20044;-77
2023/06/07 12:04:28;;;;;;;7.68;5.20;;;28.10;79.30;;;;;;5043587;28;20075;-76
2023/06/07 12:06:56;;;;;;;7.03;4.75;;;28.10;81.60;;;;;;5045001;28;20057;-76
2023/06/07 12:09:26;;;;;;;11.13;3.97;;;28.10;83.30;;;;;;5043421;28;20052;-79
2023/06/07 12:11:55;;;;;;;5.60;3.95;;;27.60;83.50;;;;;;5044049;28;20044;-79
2023/06/07 12:14:31;;;;;;;6.50;3.75;;;27.20;86.80;;;;;;5025493;28;20045;-82
2023/06/07 12:17:00;;;;;;;116.30;85.00;;;26.60;90.70;;;;;;5043859;28;20053;-80
2023/06/07 12:19:28;;;;;;;39.95;28.17;;;26.20;93.30;;;;;;5024513;28;20048;-81
2023/06/07 12:22:04;;;;;;;41.45;30.33;;;26.00;95.10;;;;;;5041583;28;20038;-80
2023/06/07 12:24:36;;;;;;;45.45;33.17;;;26.00;98.20;;;;;;5043000;28;20040;-81
2023/06/07 12:27:07;;;;;;;20.27;13.55;;;26.10;99.90;;;;;;5045715;28;20042;-78
2023/06/07 12:29:37;;;;;;;24.58;18.95;;;26.20;99.90;;;;;;5041625;28;20069;-80
2023/06/07 12:32:05;;;;;;;7.65;4.78;;;26.40;99.90;;;;;;5043243;28;20045;-78
2023/06/07 12:34:33;;;;;;;7.43;5.35;;;26.20;99.90;;;;;;5025874;28;20053;-78
2023/06/07 12:37:01;;;;;;;6.50;3.70;;;26.20;99.90;;;;;;5044929;28;20672;-76
2023/06/07 12:39:31;;;;;;;6.65;4.20;;;26.40;99.90;;;;;;5046796;28;20036;-79